createdAt,value
2018-04-25T00:00:21.760Z,3.73
2018-04-25T00:02:50.025Z,3.53
2018-04-25T00:05:18.342Z,4.03
2018-04-25T00:07:45.851Z,4.97
2018-04-25T00:10:13.389Z,4.17
2018-04-25T00:12:40.906Z,4.30
2018-04-25T00:15:08.456Z,3.67
2018-04-25T00:17:36.728Z,3.60
2018-04-25T00:20:05.024Z,4.30
2018-04-25T00:22:32.566Z,4.00
2018-04-25T00:25:00.090Z,3.58
2018-04-25T00:27:27.661Z,3.80
2018-04-25T00:29:55.186Z,5.60
2018-04-25T00:32:22.747Z,4.90
2018-04-25T00:34:50.258Z,4.70
2018-04-25T00:37:18.552Z,3.83
2018-04-25T00:39:46.058Z,4.15
2018-04-25T00:42:13.590Z,5.20
2018-04-25T00:44:41.096Z,5.05
2018-04-25T00:47:08.631Z,5.68
2018-04-25T00:49:36.150Z,5.30
2018-04-25T00:52:03.671Z,4.95
2018-04-25T00:54:31.978Z,5.95
2018-04-25T00:56:59.487Z,4.00
2018-04-25T00:59:27.009Z,3.80
2018-04-25T01:01:54.512Z,3.50
2018-04-25T01:04:22.049Z,3.33
2018-04-25T01:06:49.575Z,3.50
2018-04-25T01:09:17.117Z,3.57
2018-04-25T01:11:44.740Z,3.27
2018-04-25T01:14:12.940Z,4.10
2018-04-25T01:16:41.228Z,3.60
2018-04-25T01:19:08.798Z,4.05
2018-04-25T01:21:36.319Z,3.65
2018-04-25T01:24:03.869Z,4.00
2018-04-25T01:26:31.388Z,3.50
2018-04-25T01:29:01.532Z,3.72
2018-04-25T01:31:51.473Z,3.92
2018-04-25T01:34:20.475Z,4.50
2018-04-25T01:36:56.656Z,3.60
2018-04-25T01:39:25.897Z,4.37
2018-04-25T01:41:53.420Z,4.22
2018-04-25T01:44:21.660Z,5.28
2018-04-25T01:46:55.099Z,3.78
2018-04-25T01:49:24.429Z,4.68
2018-04-25T01:52:03.882Z,4.00
2018-04-25T01:54:44.014Z,4.32
2018-04-25T01:57:23.561Z,3.45
2018-04-25T02:00:02.724Z,3.90
2018-04-25T02:02:29.744Z,3.90
2018-04-25T02:04:57.282Z,4.43
2018-04-25T02:07:24.823Z,3.87
2018-04-25T02:09:52.329Z,4.28
2018-04-25T02:12:20.621Z,4.68
2018-04-25T02:14:48.890Z,3.60
2018-04-25T02:17:17.193Z,4.00
2018-04-25T02:19:44.726Z,4.60
2018-04-25T02:22:12.998Z,4.10
2018-04-25T02:24:41.299Z,3.40
2018-04-25T02:27:08.807Z,4.80
2018-04-25T02:29:36.336Z,3.75
2018-04-25T02:32:03.836Z,3.90
2018-04-25T02:34:31.366Z,5.20
2018-04-25T02:36:58.863Z,4.55
2018-04-25T02:39:27.164Z,4.28
2018-04-25T02:41:54.665Z,5.05
2018-04-25T02:44:22.172Z,3.87
2018-04-25T02:46:50.467Z,4.60
2018-04-25T02:49:17.980Z,5.03
2018-04-25T02:51:46.311Z,4.03
2018-04-25T02:54:13.818Z,4.72
2018-04-25T02:56:41.350Z,3.97
2018-04-25T02:59:08.865Z,3.80
2018-04-25T03:01:36.424Z,4.07
2018-04-25T03:04:03.919Z,4.32
2018-04-25T03:06:31.448Z,4.22
2018-04-25T03:08:58.964Z,3.58
2018-04-25T03:11:26.460Z,3.65
2018-04-25T03:13:53.993Z,3.70
2018-04-25T03:16:21.507Z,4.18
2018-04-25T03:18:49.061Z,3.25
2018-04-25T03:21:16.552Z,3.17
2018-04-25T03:23:44.078Z,5.55
2018-04-25T03:26:11.593Z,4.80
2018-04-25T03:28:39.888Z,4.25
2018-04-25T03:31:07.397Z,4.28
2018-04-25T03:33:34.894Z,4.75
2018-04-25T03:36:03.172Z,4.28
2018-04-25T03:38:31.450Z,4.20
2018-04-25T03:40:58.987Z,4.15
2018-04-25T03:43:27.263Z,4.22
2018-04-25T03:45:54.813Z,6.50
2018-04-25T03:48:22.317Z,5.45
2018-04-25T03:50:49.877Z,6.40
2018-04-25T03:53:17.374Z,8.63
2018-04-25T03:55:45.637Z,7.25
2018-04-25T03:58:15.363Z,8.40
2018-04-25T04:00:43.167Z,5.90
2018-04-25T04:03:11.484Z,8.32
2018-04-25T04:08:32.923Z,5.12
2018-04-25T04:11:01.206Z,4.55
2018-04-25T04:13:28.734Z,4.47
2018-04-25T04:15:56.244Z,4.68
2018-04-25T04:18:23.776Z,4.80
2018-04-25T04:20:51.271Z,3.70
2018-04-25T04:23:18.786Z,4.97
2018-04-25T04:25:46.312Z,4.20
2018-04-25T04:28:13.912Z,4.70
2018-04-25T04:30:41.448Z,5.53
2018-04-25T04:33:08.969Z,4.55
2018-04-25T04:35:37.270Z,4.50
2018-04-25T04:38:04.789Z,4.85
2018-04-25T04:40:32.339Z,4.65
2018-04-25T04:42:59.842Z,4.22
2018-04-25T04:45:27.378Z,3.90
2018-04-25T04:47:55.684Z,5.20
2018-04-25T04:50:23.183Z,4.45
2018-04-25T04:52:51.048Z,5.10
2018-04-25T04:55:18.594Z,5.05
2018-04-25T04:57:46.142Z,4.75
2018-04-25T05:00:13.846Z,4.80
2018-04-25T05:02:41.660Z,5.20
2018-04-25T05:05:09.221Z,4.45
2018-04-25T05:07:36.774Z,4.85
2018-04-25T05:10:04.299Z,4.00
2018-04-25T05:12:31.826Z,4.20
2018-04-25T05:14:59.372Z,4.55
2018-04-25T05:17:26.894Z,5.00
2018-04-25T05:19:55.184Z,4.07
2018-04-25T05:22:22.729Z,4.70
2018-04-25T05:24:51.039Z,4.60
2018-04-25T05:27:18.539Z,4.93
2018-04-25T05:29:46.091Z,5.40
2018-04-25T05:32:13.662Z,6.50
2018-04-25T05:34:41.146Z,6.73
2018-04-25T05:37:09.445Z,5.00
2018-04-25T05:39:36.982Z,5.53
2018-04-25T05:42:05.292Z,4.67
2018-04-25T05:44:32.800Z,4.73
2018-04-25T05:47:00.331Z,4.10
2018-04-25T05:49:27.845Z,4.27
2018-04-25T05:51:56.147Z,4.00
2018-04-25T05:54:23.661Z,5.23
2018-04-25T05:56:52.270Z,4.30
2018-04-25T05:59:19.794Z,5.20
2018-04-25T06:01:47.297Z,4.80
2018-04-25T06:04:14.829Z,5.50
2018-04-25T06:06:42.368Z,6.37
2018-04-25T06:09:09.896Z,4.77
2018-04-25T06:11:37.421Z,4.67
2018-04-25T06:14:04.939Z,5.63
2018-04-25T06:16:32.459Z,4.50
2018-04-25T06:19:00.010Z,4.90
2018-04-25T06:21:27.539Z,5.50
2018-04-25T06:23:55.835Z,5.30
2018-04-25T06:26:23.356Z,3.80
2018-04-25T06:28:50.878Z,3.97
2018-04-25T06:31:18.402Z,3.80
2018-04-25T06:33:45.926Z,3.60
2018-04-25T06:36:13.471Z,5.20
2018-04-25T06:38:40.985Z,4.00
2018-04-25T06:41:08.513Z,3.80
2018-04-25T06:43:36.038Z,3.77
2018-04-25T06:46:03.570Z,3.00
2018-04-25T06:48:31.097Z,3.23
2018-04-25T06:50:59.381Z,4.33
2018-04-25T06:53:27.673Z,3.73
2018-04-25T06:55:55.176Z,3.53
2018-04-25T06:58:22.696Z,3.53
2018-04-25T07:00:50.204Z,3.60
2018-04-25T07:03:17.750Z,3.67
2018-04-25T07:05:45.248Z,3.87
2018-04-25T07:08:13.603Z,3.80
2018-04-25T07:10:41.093Z,2.87
2018-04-25T07:13:09.364Z,2.90
2018-04-25T07:15:36.917Z,3.30
2018-04-25T07:18:05.184Z,3.40
2018-04-25T07:20:32.726Z,3.67
2018-04-25T07:23:00.225Z,3.30
2018-04-25T07:25:28.521Z,3.50
2018-04-25T07:27:56.030Z,4.70
2018-04-25T07:30:23.550Z,3.07
2018-04-25T07:32:51.078Z,2.50
2018-04-25T07:35:18.706Z,3.33
2018-04-25T07:37:46.189Z,2.83
2018-04-25T07:40:14.460Z,3.63
2018-04-25T07:42:42.759Z,3.20
2018-04-25T07:45:10.305Z,3.40
2018-04-25T07:47:38.599Z,3.40
2018-04-25T07:50:06.141Z,3.80
2018-04-25T07:52:34.450Z,3.90
2018-04-25T07:55:01.969Z,3.40
2018-04-25T07:57:30.265Z,3.97
2018-04-25T07:59:57.780Z,5.60
2018-04-25T08:02:25.280Z,3.00
2018-04-25T08:04:52.810Z,3.27
2018-04-25T08:07:21.121Z,3.77
2018-04-25T08:09:48.648Z,2.87
2018-04-25T08:12:28.854Z,3.37
2018-04-25T08:15:08.036Z,3.10
2018-04-25T08:17:48.340Z,3.90
2018-04-25T08:20:27.610Z,2.53
2018-04-25T08:22:55.110Z,2.77
2018-04-25T08:25:22.669Z,3.53
2018-04-25T08:27:50.179Z,3.50
2018-04-25T08:30:17.710Z,2.50
2018-04-25T08:32:45.214Z,2.33
2018-04-25T08:35:12.722Z,3.23
2018-04-25T08:37:40.389Z,3.03
2018-04-25T08:40:07.910Z,3.03
2018-04-25T08:42:36.197Z,2.50
2018-04-25T08:45:04.570Z,3.00
2018-04-25T08:47:32.047Z,3.47
2018-04-25T08:49:59.556Z,2.67
2018-04-25T08:52:27.082Z,2.97
2018-04-25T08:54:54.602Z,3.07
2018-04-25T08:57:22.889Z,3.10
2018-04-25T08:59:50.416Z,2.87
2018-04-25T09:02:18.717Z,2.27
2018-04-25T09:04:47.005Z,3.00
2018-04-25T09:07:14.510Z,2.60
2018-04-25T09:09:42.064Z,2.40
2018-04-25T09:12:09.565Z,2.30
2018-04-25T09:14:37.862Z,3.13
2018-04-25T09:17:06.297Z,3.00
2018-04-25T09:19:33.800Z,3.20
2018-04-25T09:22:01.337Z,3.90
2018-04-25T09:24:29.626Z,3.00
2018-04-25T09:26:57.145Z,3.07
2018-04-25T09:29:24.663Z,3.03
2018-04-25T09:31:52.196Z,3.23
2018-04-25T09:34:19.716Z,2.90
2018-04-25T09:36:47.241Z,3.27
2018-04-25T09:39:14.754Z,2.90
2018-04-25T09:41:43.041Z,2.63
2018-04-25T09:44:11.344Z,3.43
2018-04-25T09:46:38.857Z,3.57
2018-04-25T09:49:06.381Z,3.10
2018-04-25T09:51:33.890Z,4.43
2018-04-25T09:54:02.195Z,2.73
2018-04-25T09:56:29.701Z,3.33
2018-04-25T09:58:57.239Z,3.67
2018-04-25T10:01:30.695Z,2.70
2018-04-25T10:03:59.013Z,3.10
2018-04-25T10:06:26.538Z,3.30
2018-04-25T10:08:54.048Z,2.97
2018-04-25T10:11:21.564Z,3.57
2018-04-25T10:13:49.097Z,2.37
2018-04-25T10:16:17.393Z,3.90
2018-04-25T10:18:44.904Z,3.17
2018-04-25T10:21:12.421Z,3.37
2018-04-25T10:23:39.965Z,2.90
2018-04-25T10:26:07.495Z,2.77
2018-04-25T10:28:35.770Z,2.87
2018-04-25T10:31:03.267Z,3.20
2018-04-25T10:33:30.808Z,2.97
2018-04-25T10:35:58.613Z,3.10
2018-04-25T10:38:26.168Z,2.77
2018-04-25T10:40:53.677Z,2.30
2018-04-25T10:43:21.976Z,2.80
2018-04-25T10:45:49.472Z,2.43
2018-04-25T10:48:17.015Z,3.33
2018-04-25T10:50:44.541Z,2.53
2018-04-25T10:53:12.847Z,2.80
2018-04-25T10:55:40.348Z,3.10
2018-04-25T10:58:07.867Z,3.37
2018-04-25T11:00:35.402Z,2.80
2018-04-25T11:03:02.917Z,2.10
2018-04-25T11:05:30.471Z,2.70
2018-04-25T11:07:57.986Z,3.37
2018-04-25T11:10:25.514Z,2.63
2018-04-25T11:12:53.020Z,2.37
2018-04-25T11:15:20.557Z,2.83
2018-04-25T11:17:48.075Z,3.90
2018-04-25T11:20:15.622Z,2.77
2018-04-25T11:22:43.116Z,3.00
2018-04-25T11:25:11.386Z,2.70
2018-04-25T11:27:39.688Z,2.33
2018-04-25T11:30:07.197Z,2.70
2018-04-25T11:32:34.721Z,3.47
2018-04-25T11:35:02.242Z,2.70
2018-04-25T11:37:30.541Z,3.13
2018-04-25T11:39:58.037Z,3.50
2018-04-25T11:42:25.576Z,3.03
2018-04-25T11:44:53.096Z,3.10
2018-04-25T11:47:21.444Z,3.43
2018-04-25T11:49:48.937Z,3.10
2018-04-25T11:52:17.212Z,3.10
2018-04-25T11:54:45.498Z,3.00
2018-04-25T11:57:13.003Z,3.00
2018-04-25T11:59:40.567Z,3.30
2018-04-25T12:02:08.076Z,3.87
2018-04-25T12:04:35.633Z,2.70
2018-04-25T12:07:03.147Z,3.27
2018-04-25T12:09:30.680Z,3.13
2018-04-25T12:11:58.195Z,2.93
2018-04-25T12:14:26.471Z,2.90
2018-04-25T12:16:55.514Z,3.13
2018-04-25T12:19:23.016Z,2.40
2018-04-25T12:21:51.341Z,2.63
2018-04-25T12:24:18.905Z,2.90
2018-04-25T12:26:46.432Z,3.07
2018-04-25T12:29:14.701Z,2.73
2018-04-25T12:31:42.989Z,3.10
2018-04-25T12:34:10.496Z,2.83
2018-04-25T12:36:38.016Z,2.50
2018-04-25T12:39:05.544Z,3.27
2018-04-25T12:41:33.868Z,2.80
2018-04-25T12:44:01.363Z,3.07
2018-04-25T12:46:28.865Z,2.80
2018-04-25T12:48:56.395Z,2.80
2018-04-25T12:51:24.691Z,2.63
2018-04-25T12:53:52.270Z,2.53
2018-04-25T12:56:20.520Z,3.43
2018-04-25T12:58:48.037Z,3.00
2018-04-25T13:01:15.573Z,2.70
2018-04-25T13:03:43.074Z,2.30
2018-04-25T13:06:11.377Z,3.40
2018-04-25T13:08:38.883Z,3.67
2018-04-25T13:11:06.416Z,2.90
2018-04-25T13:13:33.920Z,2.70
2018-04-25T13:16:02.264Z,2.73
2018-04-25T13:18:29.785Z,2.37
2018-04-25T13:20:57.310Z,3.50
2018-04-25T13:23:24.823Z,2.50
2018-04-25T13:25:52.358Z,2.80
2018-04-25T13:28:19.864Z,2.60
2018-04-25T13:30:47.413Z,2.83
2018-04-25T13:33:14.927Z,2.17
2018-04-25T13:35:42.439Z,2.80
2018-04-25T13:38:09.976Z,4.90
2018-04-25T13:40:38.267Z,2.30
2018-04-25T13:43:07.507Z,3.90
2018-04-25T13:45:35.785Z,2.30
2018-04-25T13:48:04.099Z,2.43
2018-04-25T13:50:31.607Z,3.10
2018-04-25T13:52:59.157Z,2.87
2018-04-25T13:55:26.689Z,2.53
2018-04-25T13:57:54.222Z,3.10
2018-04-25T14:00:21.747Z,2.83
2018-04-25T14:02:50.028Z,3.07
2018-04-25T14:05:18.330Z,2.77
2018-04-25T14:07:45.856Z,3.10
2018-04-25T14:10:13.434Z,2.30
2018-04-25T14:12:40.950Z,2.27
2018-04-25T14:15:08.501Z,3.40
2018-04-25T14:17:36.025Z,3.20
2018-04-25T14:20:03.572Z,2.50
2018-04-25T14:22:31.099Z,2.30
2018-04-25T14:24:59.397Z,3.00
2018-04-25T14:27:27.717Z,2.60
2018-04-25T14:29:55.244Z,4.03
2018-04-25T14:32:23.545Z,4.30
2018-04-25T14:34:51.088Z,3.93
2018-04-25T14:37:18.591Z,3.60
2018-04-25T14:39:46.118Z,3.37
2018-04-25T14:42:13.622Z,2.53
2018-04-25T14:44:41.932Z,2.93
2018-04-25T14:47:09.452Z,3.00
2018-04-25T14:49:36.972Z,3.50
2018-04-25T14:52:04.497Z,3.33
2018-04-25T14:54:32.840Z,4.13
2018-04-25T14:57:00.328Z,3.80
2018-04-25T14:59:28.622Z,3.70
2018-04-25T15:01:56.130Z,4.30
2018-04-25T15:04:23.651Z,4.10
2018-04-25T15:06:51.182Z,3.83
2018-04-25T15:09:18.702Z,3.80
2018-04-25T15:11:46.235Z,3.50
2018-04-25T15:14:13.751Z,3.43
2018-04-25T15:16:42.057Z,4.30
2018-04-25T15:19:09.830Z,3.43
2018-04-25T15:21:37.370Z,4.53
2018-04-25T15:24:04.894Z,4.27
2018-04-25T15:26:33.174Z,3.73
2018-04-25T15:29:01.469Z,3.70
2018-04-25T15:31:28.972Z,3.87
2018-04-25T15:33:56.505Z,3.97
2018-04-25T15:36:24.031Z,3.60
2018-04-25T15:38:52.316Z,4.67
2018-04-25T15:41:20.615Z,5.63
2018-04-25T15:43:48.134Z,4.00
2018-04-25T15:46:16.417Z,4.07
2018-04-25T15:48:44.722Z,4.07
2018-04-25T15:51:12.241Z,4.63
2018-04-25T15:53:40.550Z,4.60
2018-04-25T15:56:08.090Z,3.33
2018-04-25T15:58:36.369Z,4.23
2018-04-25T16:01:04.671Z,3.57
2018-04-25T16:03:32.178Z,4.17
2018-04-25T16:05:59.712Z,3.93
2018-04-25T16:08:27.221Z,5.00
2018-04-25T16:10:55.551Z,4.60
2018-04-25T16:13:23.847Z,3.20
2018-04-25T16:15:51.350Z,4.23
2018-04-25T16:18:19.005Z,4.80
2018-04-25T16:20:46.552Z,3.87
2018-04-25T16:23:14.859Z,3.70
2018-04-25T16:25:42.383Z,5.40
2018-04-25T16:28:10.686Z,4.17
2018-04-25T16:30:38.413Z,4.23
2018-04-25T16:33:05.962Z,4.23
2018-04-25T16:35:33.461Z,3.63
2018-04-25T16:38:01.030Z,4.87
2018-04-25T16:40:28.542Z,4.13
2018-04-25T16:42:56.830Z,4.27
2018-04-25T16:45:25.127Z,3.83
2018-04-25T16:47:52.662Z,3.73
2018-04-25T16:50:20.965Z,4.63
2018-04-25T16:52:48.482Z,4.20
2018-04-25T16:55:16.078Z,4.03
2018-04-25T16:57:43.593Z,4.20
2018-04-25T17:00:11.129Z,5.67
2018-04-25T17:02:38.641Z,4.77
2018-04-25T17:05:06.926Z,4.13
2018-04-25T17:07:34.457Z,4.53
2018-04-25T17:10:01.973Z,5.40
2018-04-25T17:12:29.511Z,4.60
2018-04-25T17:14:57.064Z,4.40
2018-04-25T17:17:25.349Z,4.27
2018-04-25T17:19:52.990Z,5.47
2018-04-25T17:22:21.485Z,4.60
2018-04-25T17:24:49.006Z,3.80
2018-04-25T17:27:16.557Z,4.50
2018-04-25T17:29:44.073Z,4.60
2018-04-25T17:32:11.597Z,4.20
2018-04-25T17:34:39.887Z,4.80
2018-04-25T17:37:08.165Z,4.10
2018-04-25T17:39:35.696Z,4.70
2018-04-25T17:42:03.233Z,4.97
2018-04-25T17:44:30.764Z,4.60
2018-04-25T17:46:58.293Z,4.40
2018-04-25T17:49:26.615Z,4.40
2018-04-25T17:51:54.129Z,4.30
2018-04-25T17:54:22.404Z,5.53
2018-04-25T17:56:50.735Z,5.30
2018-04-25T17:59:18.251Z,4.30
2018-04-25T18:01:45.805Z,5.13
2018-04-25T18:04:13.320Z,5.53
2018-04-25T18:06:41.629Z,4.70
2018-04-25T18:09:09.903Z,5.07
2018-04-25T18:11:38.200Z,4.87
2018-04-25T18:14:05.695Z,4.70
2018-04-25T18:16:33.213Z,5.67
2018-04-25T18:19:00.725Z,5.30
2018-04-25T18:21:28.229Z,4.73
2018-04-25T18:23:55.747Z,5.07
2018-04-25T18:26:23.262Z,4.70
2018-04-25T18:28:50.789Z,5.40
2018-04-25T18:31:18.345Z,5.40
2018-04-25T18:33:46.653Z,5.53
2018-04-25T18:36:14.161Z,4.17
2018-04-25T18:38:41.690Z,5.97
2018-04-25T18:41:09.209Z,5.30
2018-04-25T18:43:37.487Z,4.50
2018-04-25T18:46:05.770Z,5.30
2018-04-25T18:48:34.040Z,6.20
2018-04-25T18:51:02.337Z,5.37
2018-04-25T18:53:29.847Z,4.70
2018-04-25T18:55:57.620Z,5.13
2018-04-25T18:58:25.152Z,4.87
2018-04-25T19:00:52.676Z,4.23
2018-04-25T19:03:20.208Z,4.80
2018-04-25T19:05:48.475Z,5.03
2018-04-25T19:08:16.775Z,5.27
2018-04-25T19:10:44.276Z,5.70
2018-04-25T19:13:11.799Z,5.93
2018-04-25T19:15:39.308Z,4.57
2018-04-25T19:18:06.858Z,6.93
2018-04-25T19:20:34.365Z,5.40
2018-04-25T19:23:02.660Z,5.60
2018-04-25T19:25:30.177Z,5.47
2018-04-25T19:27:58.493Z,5.80
2018-04-25T19:30:26.006Z,5.20
2018-04-25T19:32:53.526Z,6.37
2018-04-25T19:35:21.053Z,6.67
2018-04-25T19:37:48.574Z,5.50
2018-04-25T19:40:16.101Z,5.57
2018-04-25T19:42:43.616Z,5.37
2018-04-25T19:45:12.024Z,8.20
2018-04-25T19:47:39.558Z,7.27
2018-04-25T19:50:07.925Z,6.87
2018-04-25T19:52:35.391Z,6.73
2018-04-25T19:55:03.772Z,7.23
2018-04-25T19:57:32.113Z,6.60
2018-04-25T19:59:59.598Z,6.90
2018-04-25T20:02:27.900Z,8.00
2018-04-25T20:04:55.405Z,8.53
2018-04-25T20:07:22.928Z,7.93
2018-04-25T20:09:50.433Z,8.77
2018-04-25T20:12:17.972Z,9.93
2018-04-25T20:14:45.509Z,11.00
2018-04-25T20:17:13.047Z,8.73
2018-04-25T20:19:40.570Z,8.83
2018-04-25T20:22:08.075Z,9.37
2018-04-25T20:24:35.614Z,11.10
2018-04-25T20:27:03.133Z,10.00
2018-04-25T20:29:30.660Z,8.63
2018-04-25T20:31:58.169Z,9.87
2018-04-25T20:34:26.474Z,10.20
2018-04-25T20:36:53.997Z,9.33
2018-04-25T20:39:21.528Z,11.87
2018-04-25T20:41:49.042Z,9.27
2018-04-25T20:44:16.592Z,10.47
2018-04-25T20:46:44.889Z,9.53
2018-04-25T20:49:12.398Z,8.83
2018-04-25T20:51:40.019Z,10.27
2018-04-25T20:54:07.523Z,10.10
2018-04-25T20:56:35.066Z,9.70
2018-04-25T20:59:02.568Z,9.13
2018-04-25T21:01:30.887Z,8.60
2018-04-25T21:03:58.403Z,8.70
2018-04-25T21:06:25.936Z,7.93
2018-04-25T21:08:53.596Z,8.90
2018-04-25T21:11:21.103Z,8.23
2018-04-25T21:13:48.647Z,8.80
2018-04-25T21:16:16.148Z,8.03
2018-04-25T21:18:43.751Z,10.47
2018-04-25T21:21:11.217Z,7.70
2018-04-25T21:23:38.771Z,9.23
2018-04-25T21:26:07.055Z,9.27
2018-04-25T21:28:34.604Z,9.13
2018-04-25T21:31:02.876Z,8.07
2018-04-25T21:33:31.166Z,8.80
2018-04-25T21:35:58.696Z,9.77
2018-04-25T21:38:26.201Z,10.10
2018-04-25T21:40:53.736Z,9.90
2018-04-25T21:43:22.009Z,10.97
2018-04-25T21:45:50.303Z,9.70
2018-04-25T21:48:17.823Z,10.60
2018-04-25T21:50:46.125Z,9.47
2018-04-25T21:53:13.645Z,9.97
2018-04-25T21:55:41.159Z,9.77
2018-04-25T21:58:08.709Z,9.90
2018-04-25T22:00:36.243Z,9.67
2018-04-25T22:03:04.561Z,9.60
2018-04-25T22:05:32.083Z,11.03
2018-04-25T22:08:00.376Z,10.37
2018-04-25T22:10:27.896Z,10.63
2018-04-25T22:12:55.429Z,9.47
2018-04-25T22:15:22.932Z,10.53
2018-04-25T22:17:51.237Z,11.87
2018-04-25T22:20:18.761Z,10.13
2018-04-25T22:22:47.032Z,10.47
2018-04-25T22:25:14.557Z,9.27
2018-04-25T22:27:42.078Z,10.30
2018-04-25T22:30:09.632Z,9.70
2018-04-25T22:32:37.917Z,10.30
2018-04-25T22:35:05.455Z,10.10
2018-04-25T22:37:33.751Z,10.70
2018-04-25T22:40:01.303Z,10.53
2018-04-25T22:42:29.580Z,9.13
2018-04-25T22:44:57.853Z,10.60
2018-04-25T22:47:25.395Z,9.50
2018-04-25T22:49:52.900Z,9.30
2018-04-25T22:52:20.425Z,8.30
2018-04-25T22:54:48.721Z,8.27
2018-04-25T22:57:16.275Z,8.93
2018-04-25T22:59:43.799Z,8.00
2018-04-25T23:02:11.341Z,7.20
2018-04-25T23:04:38.856Z,6.67
2018-04-25T23:07:06.410Z,7.13
2018-04-25T23:09:33.917Z,7.53
2018-04-25T23:12:02.201Z,7.13
2018-04-25T23:14:29.728Z,7.17
2018-04-25T23:16:57.242Z,7.77
2018-04-25T23:19:25.590Z,7.27
2018-04-25T23:21:53.100Z,6.93
2018-04-25T23:24:20.637Z,8.20
2018-04-25T23:26:48.927Z,8.00
2018-04-25T23:29:17.245Z,8.20
2018-04-25T23:31:44.794Z,8.80
2018-04-25T23:34:12.306Z,9.07
2018-04-25T23:36:40.596Z,7.17
2018-04-25T23:39:08.905Z,7.50
2018-04-25T23:41:36.437Z,9.13
2018-04-25T23:44:03.957Z,7.90
2018-04-25T23:46:31.477Z,6.70
2018-04-25T23:48:59.013Z,7.17
2018-04-25T23:51:26.557Z,7.63
2018-04-25T23:53:54.840Z,6.97
2018-04-25T23:56:23.136Z,8.57
2018-04-25T23:58:50.632Z,8.40
